Time;durP1;ratioP1;P1;durP2;ratioP2;P2;SDS_P1;SDS_P2;PMS_P1;PMS_P2;Temp;Humidity;BMP_temperature;BMP_pressure;BME280_temperature;BME280_humidity;BME280_pressure;Samples;Min_cycle;Max_cycle;Signal;HPM_P1;HPM_P2
2022/08/06 05:44:33;;;;;;;6.35;2.50;;;24.60;57.40;;;;;;6021066;29;20049;-84
2022/08/06 11:41:28;;;;;;;5.55;2.72;;;36.90;32.90;;;;;;6814247;23;20045;-74
2022/08/06 11:44:34;;;;;;;3.55;2.53;;;37.20;32.70;;;;;;6032639;29;20139;-74
2022/08/06 11:48:04;;;;;;;5.65;2.75;;;37.30;32.20;;;;;;6027760;29;20059;-75
2022/08/06 11:51:44;;;;;;;3.45;2.78;;;37.50;32.00;;;;;;6026667;29;20042;-75
2022/08/06 11:54:48;;;;;;;3.80;2.40;;;37.70;31.70;;;;;;6027263;29;20098;-77
2022/08/06 11:58:12;;;;;;;5.07;2.33;;;37.80;31.20;;;;;;6025133;29;20046;-76
2022/08/06 12:01:13;;;;;;;5.60;2.78;;;37.80;30.90;;;;;;6027429;29;20037;-75
2022/08/06 12:04:35;;;;;;;4.32;2.45;;;37.90;31.00;;;;;;6028881;29;20064;-78
2022/08/06 12:07:36;;;;;;;3.30;2.30;;;38.00;30.60;;;;;;6038880;29;20078;-79
2022/08/06 12:10:37;;;;;;;6.50;2.25;;;38.10;30.30;;;;;;6041709;29;20542;-78
2022/08/06 12:13:39;;;;;;;4.50;2.15;;;38.20;30.00;;;;;;6034923;29;20060;-78
2022/08/06 12:16:40;;;;;;;6.03;2.40;;;38.30;29.70;;;;;;6030234;29;20045;-78
2022/08/06 12:19:46;;;;;;;2.85;2.05;;;38.30;29.50;;;;;;6013032;29;20042;-76
2022/08/06 12:22:48;;;;;;;3.83;2.63;;;38.50;29.40;;;;;;6030050;29;20045;-75
2022/08/06 12:25:54;;;;;;;8.25;2.67;;;38.50;29.10;;;;;;6037991;29;20037;-75
2022/08/06 12:29:00;;;;;;;5.55;2.40;;;38.50;29.00;;;;;;6030633;29;20094;-74
2022/08/06 12:32:18;;;;;;;3.92;2.60;;;38.50;28.80;;;;;;6030951;29;20057;-75
2022/08/06 12:35:19;;;;;;;;;;;38.60;28.80;;;;;;6025963;29;20482;-75
2022/08/06 12:38:21;;;;;;;4.43;2.58;;;38.70;28.40;;;;;;6029394;29;19916;-74
2022/08/06 12:41:22;;;;;;;3.65;2.35;;;38.70;28.40;;;;;;6028199;29;20105;-75
2022/08/06 12:44:32;;;;;;;3.78;2.33;;;38.70;28.40;;;;;;6028125;29;20037;-75
2022/08/06 12:47:33;;;;;;;4.43;2.55;;;38.90;28.30;;;;;;6023612;29;20034;-75
2022/08/06 12:50:42;;;;;;;4.47;2.28;;;39.30;27.90;;;;;;6029287;29;20044;-74
2022/08/06 12:53:52;;;;;;;2.20;1.90;;;39.50;27.50;;;;;;6030081;29;20064;-74
2022/08/06 12:56:56;;;;;;;2.50;2.20;;;39.80;27.40;;;;;;6037925;29;20045;-74
2022/08/06 12:59:58;;;;;;;7.55;2.47;;;40.00;26.90;;;;;;6035876;29;20475;-77
2022/08/06 13:03:01;;;;;;;4.05;2.22;;;40.30;26.80;;;;;;6040635;29;20470;-81
2022/08/06 13:06:06;;;;;;;6.22;2.38;;;40.60;26.20;;;;;;6037263;29;20469;-78
2022/08/06 13:09:07;;;;;;;4.20;2.08;;;40.80;26.10;;;;;;6028604;29;20149;-79
2022/08/06 13:12:18;;;;;;;2.17;1.98;;;41.30;25.80;;;;;;6041849;29;20037;-81
2022/08/06 13:15:19;;;;;;;3.05;2.30;;;41.90;25.20;;;;;;6030562;29;20523;-77
2022/08/06 13:18:21;;;;;;;4.15;1.83;;;42.50;24.70;;;;;;6023575;29;20053;-77
2022/08/06 13:21:23;;;;;;;5.25;2.55;;;42.80;24.10;;;;;;6031827;29;20120;-77
2022/08/06 13:24:28;;;;;;;4.22;2.17;;;42.80;23.90;;;;;;6024020;29;20375;-76
2022/08/06 13:27:33;;;;;;;4.43;2.20;;;43.00;23.80;;;;;;6009423;29;20058;-78
2022/08/06 13:30:34;;;;;;;5.60;2.33;;;43.40;23.60;;;;;;6032930;29;20367;-75
2022/08/06 13:33:38;;;;;;;4.93;2.10;;;43.60;23.20;;;;;;6032892;29;20057;-75
2022/08/06 13:36:42;;;;;;;2.10;1.90;;;43.70;23.10;;;;;;6015163;29;20439;-75
2022/08/06 13:39:52;;;;;;;2.63;2.00;;;44.10;22.80;;;;;;6012776;29;20049;-75
2022/08/06 13:42:57;;;;;;;3.40;2.30;;;44.40;22.50;;;;;;6027190;29;20501;-75
2022/08/06 13:46:08;;;;;;;3.20;2.05;;;44.50;22.30;;;;;;6027858;29;20044;-76
2022/08/06 13:49:13;;;;;;;4.25;2.13;;;44.80;22.20;;;;;;6027220;29;20065;-75
2022/08/06 13:52:13;;;;;;;2.60;2.00;;;45.00;21.70;;;;;;6025185;29;20049;-76
2022/08/06 13:55:22;;;;;;;4.45;2.10;;;45.00;21.70;;;;;;6030922;29;20040;-75
2022/08/06 13:58:23;;;;;;;5.50;2.10;;;45.00;21.60;;;;;;6052974;29;20351;-76
2022/08/06 14:01:24;;;;;;;3.63;2.20;;;44.80;21.60;;;;;;6046455;29;20042;-76
2022/08/06 14:04:27;;;;;;;2.88;2.00;;;44.80;21.60;;;;;;6028107;29;20042;-76
2022/08/06 14:07:28;;;;;;;6.65;2.13;;;44.70;21.50;;;;;;6035667;29;20045;-75
2022/08/06 14:10:28;;;;;;;3.70;2.33;;;44.70;21.50;;;;;;6035870;29;20049;-78
2022/08/06 14:13:31;;;;;;;6.55;2.25;;;44.70;21.70;;;;;;6034233;29;20045;-78
2022/08/06 14:16:32;;;;;;;4.85;2.20;;;44.70;21.40;;;;;;6034271;29;20376;-77
2022/08/06 14:19:33;;;;;;;2.90;2.13;;;45.00;21.30;;;;;;6033937;29;20037;-75
2022/08/06 14:22:34;;;;;;;3.33;2.13;;;45.20;21.00;;;;;;6042814;29;20774;-75
2022/08/06 14:25:37;;;;;;;6.10;2.17;;;45.30;20.80;;;;;;6029411;29;20045;-77
2022/08/06 14:28:38;;;;;;;4.85;2.35;;;45.20;20.90;;;;;;6028084;29;20037;-78
2022/08/06 14:31:39;;;;;;;6.22;2.30;;;45.20;20.90;;;;;;6030748;29;20337;-78
2022/08/06 14:34:39;;;;;;;6.80;2.50;;;45.30;20.90;;;;;;6035254;29;20136;-79
2022/08/06 14:37:44;;;;;;;5.53;2.45;;;45.40;20.80;;;;;;6033439;29;20037;-78
2022/08/06 14:47:25;;;;;;;4.18;2.47;;;46.00;20.20;;;;;;6034973;29;20383;-76
2022/08/06 14:50:26;;;;;;;10.95;2.22;;;45.40;20.50;;;;;;6017719;29;20041;-76
2022/08/06 14:53:27;;;;;;;3.80;1.90;;;44.20;21.40;;;;;;6020278;29;20436;-76
2022/08/06 14:56:28;;;;;;;4.55;2.53;;;42.70;22.40;;;;;;6017033;29;20037;-75
2022/08/06 14:59:29;;;;;;;5.70;2.35;;;41.50;23.60;;;;;;6032528;29;20498;-87
2022/08/06 15:02:30;;;;;;;4.60;2.50;;;40.60;24.40;;;;;;6033827;29;20033;-76
2022/08/06 15:05:34;;;;;;;15.90;2.40;;;40.00;25.00;;;;;;6036070;29;20037;-79
2022/08/06 15:08:36;;;;;;;5.18;2.35;;;39.50;25.60;;;;;;6016163;29;20048;-79
2022/08/06 15:11:38;;;;;;;3.75;2.35;;;38.90;26.00;;;;;;6017510;29;20029;-76
2022/08/06 15:14:39;;;;;;;6.25;2.40;;;38.40;26.60;;;;;;6014822;29;20045;-80
2022/08/06 15:17:41;;;;;;;5.60;2.35;;;37.80;27.10;;;;;;6016389;29;20117;-78
2022/08/06 15:20:41;;;;;;;3.30;2.25;;;37.40;27.60;;;;;;6034810;29;20095;-78
2022/08/06 15:23:44;;;;;;;5.90;2.25;;;37.10;27.90;;;;;;6016918;29;20053;-77
2022/08/06 15:26:45;;;;;;;5.13;2.72;;;36.90;28.30;;;;;;6020955;29;20061;-80
2022/08/06 15:29:46;;;;;;;4.55;2.50;;;36.70;28.40;;;;;;6019186;29;20450;-78
2022/08/06 15:32:48;;;;;;;6.55;2.53;;;36.70;28.50;;;;;;6004679;29;20056;-79
2022/08/06 15:35:49;;;;;;;5.75;2.42;;;37.10;28.30;;;;;;6016273;29;20041;-82
2022/08/06 15:38:51;;;;;;;5.47;2.50;;;38.40;27.20;;;;;;6013304;29;20539;-82
2022/08/06 15:41:52;;;;;;;8.13;2.38;;;40.00;25.70;;;;;;6018912;29;20136;-82
2022/08/06 15:44:53;;;;;;;6.20;2.13;;;40.90;24.60;;;;;;6019665;29;20140;-81
2022/08/06 15:47:56;;;;;;;5.35;2.25;;;41.60;24.00;;;;;;6035884;29;20127;-79
2022/08/06 15:50:58;;;;;;;4.07;2.20;;;42.00;23.50;;;;;;6035464;29;20070;-80
2022/08/06 15:53:59;;;;;;;3.35;2.40;;;42.60;23.00;;;;;;6034967;29;20390;-80
2022/08/06 15:57:00;;;;;;;3.10;2.30;;;42.90;22.70;;;;;;6035148;29;20447;-81
2022/08/06 16:00:04;;;;;;;2.85;2.30;;;43.30;22.40;;;;;;6034915;29;20059;-81
2022/08/06 16:03:08;;;;;;;4.65;2.10;;;43.50;22.00;;;;;;6033305;29;20132;-81
2022/08/06 16:06:09;;;;;;;4.70;2.25;;;43.30;21.90;;;;;;6034736;29;20052;-82
2022/08/06 16:09:10;;;;;;;3.63;2.25;;;43.20;22.10;;;;;;6034227;29;20034;-82
2022/08/06 16:12:11;;;;;;;3.40;2.30;;;43.10;22.10;;;;;;6035015;29;20051;-81
2022/08/06 16:15:12;;;;;;;6.45;2.22;;;43.00;22.10;;;;;;6033826;29;20049;-82
2022/08/06 16:18:13;;;;;;;10.77;2.25;;;43.10;22.20;;;;;;6033396;29;20365;-83
2022/08/06 16:21:14;;;;;;;4.78;2.20;;;43.10;22.20;;;;;;6034931;29;20040;-83
2022/08/06 16:24:15;;;;;;;3.47;2.22;;;43.10;22.20;;;;;;6019252;29;20399;-84
2022/08/06 16:27:17;;;;;;;5.32;2.40;;;43.20;22.10;;;;;;6033586;29;20105;-81
2022/08/06 16:30:18;;;;;;;4.75;2.05;;;43.10;22.10;;;;;;6033526;29;20064;-81
2022/08/06 16:33:19;;;;;;;4.53;2.42;;;43.10;22.10;;;;;;6033558;29;20386;-80
2022/08/06 16:36:20;;;;;;;4.32;1.88;;;42.90;22.00;;;;;;6033166;29;20052;-78
2022/08/06 16:39:21;;;;;;;2.80;2.10;;;42.50;22.30;;;;;;6032634;29;20037;-78
2022/08/06 16:42:23;;;;;;;5.28;2.00;;;41.60;23.00;;;;;;6032211;29;20045;-79
2022/08/06 16:45:25;;;;;;;2.67;2.28;;;40.70;23.90;;;;;;6035763;29;20048;-77
2022/08/06 16:48:26;;;;;;;8.63;2.00;;;39.70;24.70;;;;;;6031666;29;20030;-79
2022/08/06 16:51:28;;;;;;;6.72;2.05;;;38.90;25.50;;;;;;6031391;29;20045;-79
2022/08/06 16:54:29;;;;;;;3.75;2.17;;;38.10;26.30;;;;;;6029692;29;20060;-79
2022/08/06 16:57:30;;;;;;;3.58;2.63;;;37.40;27.00;;;;;;6035109;29;20041;-78
2022/08/06 17:00:31;;;;;;;5.57;2.08;;;36.80;27.60;;;;;;6034584;29;20547;-78
2022/08/06 17:03:32;;;;;;;4.50;2.55;;;36.40;28.10;;;;;;6033706;29;20049;-76
2022/08/06 17:06:34;;;;;;;7.50;2.30;;;36.00;28.60;;;;;;6033120;29;20045;-78
2022/08/06 17:09:34;;;;;;;5.45;2.08;;;35.70;28.90;;;;;;6016351;29;20561;-77
2022/08/06 17:12:36;;;;;;;5.00;2.10;;;35.50;29.20;;;;;;6035755;29;20049;-77
2022/08/06 17:15:37;;;;;;;6.85;2.05;;;35.20;29.40;;;;;;6030630;29;20051;-77
2022/08/06 17:18:38;;;;;;;7.53;2.08;;;35.20;29.60;;;;;;6032988;29;20482;-77
2022/08/06 17:21:39;;;;;;;4.40;2.53;;;35.00;29.70;;;;;;6031409;29;20121;-77
2022/08/06 17:24:40;;;;;;;8.68;2.22;;;34.80;29.70;;;;;;6032267;29;20094;-77
2022/08/06 17:27:41;;;;;;;3.38;2.20;;;34.70;29.80;;;;;;6032879;29;20399;-77
2022/08/06 17:30:42;;;;;;;5.78;2.10;;;34.60;30.00;;;;;;6031568;29;20045;-77
2022/08/06 17:33:43;;;;;;;4.20;2.22;;;34.50;30.10;;;;;;6045929;29;20041;-77
2022/08/06 17:36:44;;;;;;;3.70;1.65;;;34.30;30.20;;;;;;6039281;29;20049;-76
2022/08/06 17:39:45;;;;;;;8.52;2.03;;;34.30;30.50;;;;;;6019542;29;20548;-77
2022/08/06 17:42:46;;;;;;;4.45;2.05;;;34.10;30.40;;;;;;6030916;29;20465;-76
2022/08/06 17:45:47;;;;;;;2.22;1.90;;;34.00;30.60;;;;;;6029921;29;20065;-76
2022/08/06 17:48:47;;;;;;;5.35;2.03;;;33.90;30.70;;;;;;6031279;29;20050;-76
2022/08/06 17:51:49;;;;;;;4.47;1.98;;;33.80;30.80;;;;;;6030746;29;20128;-76
2022/08/06 17:54:51;;;;;;;2.55;1.80;;;33.70;30.80;;;;;;6030465;29;20483;-77
2022/08/06 17:57:52;;;;;;;3.85;2.20;;;33.70;31.00;;;;;;6046226;29;20140;-76
2022/08/06 18:00:53;;;;;;;2.67;2.28;;;33.60;31.10;;;;;;6038316;29;20112;-77
2022/08/06 18:03:54;;;;;;;8.57;2.00;;;33.60;31.10;;;;;;6028897;29;20037;-76
2022/08/06 18:06:55;;;;;;;5.10;1.83;;;33.50;31.00;;;;;;6030632;29;20356;-78
2022/08/06 18:13:17;;;;;;;2.53;1.65;;;33.40;31.00;;;;;;6028975;29;20432;-77
2022/08/06 18:16:19;;;;;;;4.75;2.05;;;33.30;30.90;;;;;;6029714;29;20112;-77
2022/08/06 18:19:19;;;;;;;2.17;1.85;;;33.30;30.90;;;;;;6028432;29;20033;-77
2022/08/06 18:22:20;;;;;;;2.50;1.55;;;33.20;30.90;;;;;;6010600;29;20145;-77
2022/08/06 18:25:21;;;;;;;2.88;1.80;;;33.20;30.90;;;;;;6029117;29;20041;-77
2022/08/06 18:28:23;;;;;;;2.65;1.90;;;33.10;30.90;;;;;;6027975;29;20053;-76
2022/08/06 18:31:23;;;;;;;2.17;1.80;;;33.10;31.00;;;;;;6028495;29;20033;-76
2022/08/06 18:34:24;;;;;;;4.45;2.05;;;33.00;31.00;;;;;;6033412;29;20078;-76
2022/08/06 18:37:25;;;;;;;6.43;2.17;;;33.00;31.00;;;;;;6028646;29;20376;-76
2022/08/06 18:40:26;;;;;;;3.17;2.08;;;32.90;31.10;;;;;;6028749;29;20063;-76
2022/08/06 18:43:28;;;;;;;3.30;2.50;;;32.90;31.20;;;;;;6031427;29;20133;-77
2022/08/06 18:46:29;;;;;;;3.30;2.17;;;32.80;31.20;;;;;;6017141;29;20033;-77
2022/08/06 18:49:30;;;;;;;2.53;1.80;;;32.70;31.20;;;;;;6033141;29;20546;-77
2022/08/06 18:52:31;;;;;;;3.00;2.20;;;32.70;31.30;;;;;;6022036;29;20045;-77
2022/08/06 18:55:33;;;;;;;3.38;1.70;;;32.60;31.40;;;;;;6031112;29;20471;-76
2022/08/06 18:58:34;;;;;;;3.60;2.10;;;32.60;31.50;;;;;;6024003;29;20332;-77
2022/08/06 19:01:35;;;;;;;5.75;2.10;;;32.50;31.50;;;;;;6002377;29;20439;-77
2022/08/06 19:04:36;;;;;;;10.63;2.65;;;32.50;31.60;;;;;;6017192;29;20033;-76
2022/08/06 19:07:37;;;;;;;7.53;2.17;;;32.50;31.70;;;;;;6024844;29;20474;-76
2022/08/06 19:10:38;;;;;;;3.55;1.85;;;32.40;31.70;;;;;;6001851;29;20053;-78
2022/08/06 19:13:39;;;;;;;4.13;1.73;;;32.30;31.70;;;;;;6022496;29;20042;-77
2022/08/06 19:16:40;;;;;;;3.47;2.20;;;32.30;31.80;;;;;;6033932;29;20061;-77
2022/08/06 19:19:42;;;;;;;5.70;2.20;;;32.20;31.80;;;;;;6002199;29;20044;-76
2022/08/06 19:22:44;;;;;;;4.90;2.13;;;32.20;31.90;;;;;;6004822;29;20121;-76
2022/08/06 19:25:45;;;;;;;3.60;1.90;;;32.20;32.00;;;;;;6023847;29;20186;-76
2022/08/06 19:28:46;;;;;;;8.05;2.65;;;32.10;32.00;;;;;;6017125;29;20164;-77
2022/08/06 19:31:47;;;;;;;7.72;2.47;;;32.10;32.10;;;;;;6016859;29;20045;-77
2022/08/06 19:34:48;;;;;;;8.48;2.00;;;32.00;32.10;;;;;;6033286;29;20060;-77
2022/08/06 19:37:50;;;;;;;3.50;1.98;;;32.00;32.20;;;;;;6001202;29;20049;-77
2022/08/06 19:40:51;;;;;;;7.00;2.33;;;31.90;32.10;;;;;;6010644;29;20053;-77
2022/08/06 19:43:53;;;;;;;4.28;1.73;;;31.80;32.10;;;;;;6018197;29;20049;-77
2022/08/06 19:46:55;;;;;;;3.38;2.45;;;31.80;32.20;;;;;;6033485;29;20049;-77
2022/08/06 19:49:56;;;;;;;4.78;2.35;;;31.70;32.20;;;;;;6016850;29;20045;-77
2022/08/06 19:52:57;;;;;;;3.95;2.53;;;31.70;32.30;;;;;;5995889;29;20042;-77
2022/08/06 19:55:58;;;;;;;4.63;2.38;;;31.60;32.30;;;;;;6031207;29;20399;-77
2022/08/06 19:59:00;;;;;;;6.43;2.20;;;31.60;32.40;;;;;;6032919;29;20043;-77
2022/08/06 20:02:01;;;;;;;6.72;2.53;;;31.60;32.50;;;;;;6033053;29;20073;-77
2022/08/06 20:05:03;;;;;;;4.47;2.72;;;31.50;32.50;;;;;;6016448;29;20048;-77
2022/08/06 20:08:03;;;;;;;4.18;2.10;;;31.50;32.60;;;;;;6001078;29;20108;-77
2022/08/06 20:11:08;;;;;;;4.93;2.22;;;31.40;32.60;;;;;;6032577;29;20037;-76
2022/08/06 20:14:09;;;;;;;4.78;2.10;;;31.40;32.70;;;;;;6032343;29;20049;-77
2022/08/06 20:17:12;;;;;;;2.97;2.28;;;31.40;32.80;;;;;;6016195;29;20054;-77
2022/08/06 20:20:14;;;;;;;5.28;2.28;;;31.30;32.80;;;;;;6015963;29;20057;-77
2022/08/06 20:23:15;;;;;;;3.67;2.40;;;31.40;32.90;;;;;;6000858;29;20037;-77
2022/08/06 20:26:16;;;;;;;3.63;2.40;;;31.30;33.00;;;;;;6031460;29;20435;-77
2022/08/06 20:29:17;;;;;;;2.28;1.92;;;31.30;33.10;;;;;;6000671;29;20056;-77
2022/08/06 20:32:18;;;;;;;2.70;2.20;;;31.30;33.10;;;;;;6016031;29;20475;-77
2022/08/06 20:35:19;;;;;;;5.78;2.47;;;31.30;33.20;;;;;;6032208;29;20177;-77
2022/08/06 20:38:20;;;;;;;4.47;2.78;;;31.20;33.20;;;;;;6016051;29;20480;-77
2022/08/06 20:41:21;;;;;;;5.50;2.60;;;31.20;33.20;;;;;;6030871;29;20068;-77
2022/08/06 20:44:22;;;;;;;3.25;2.13;;;31.10;33.30;;;;;;6032181;29;20061;-77
2022/08/06 20:47:25;;;;;;;4.03;2.80;;;31.10;33.40;;;;;;6034282;29;20064;-77
2022/08/06 20:50:25;;;;;;;7.47;3.45;;;31.10;33.50;;;;;;6031416;29;20129;-78
2022/08/06 20:53:27;;;;;;;5.47;3.53;;;31.00;33.60;;;;;;6032977;29;20056;-77
2022/08/06 20:56:28;;;;;;;7.00;3.58;;;31.00;33.70;;;;;;6030237;29;20038;-78
2022/08/06 20:59:29;;;;;;;5.60;3.17;;;30.90;33.80;;;;;;6031185;29;20037;-77
2022/08/06 21:02:31;;;;;;;5.00;3.20;;;30.90;33.90;;;;;;6031825;29;20109;-78
2022/08/06 21:05:32;;;;;;;6.85;3.45;;;30.90;34.10;;;;;;6013684;29;20061;-77
2022/08/06 21:08:32;;;;;;;4.35;3.15;;;30.80;34.20;;;;;;6015071;29;20037;-77
2022/08/06 21:11:33;;;;;;;9.20;2.92;;;30.80;34.50;;;;;;6031255;29;20117;-76
2022/08/06 21:14:34;;;;;;;6.75;2.70;;;30.80;34.60;;;;;;6015893;29;20083;-77
2022/08/06 21:17:35;;;;;;;12.43;3.00;;;30.70;34.70;;;;;;6033929;29;20051;-77
2022/08/06 21:20:36;;;;;;;6.40;3.47;;;30.70;34.70;;;;;;6014849;29;20090;-77
2022/08/06 21:23:37;;;;;;;3.72;2.70;;;30.70;34.80;;;;;;6015786;29;20439;-77
2022/08/06 21:26:38;;;;;;;7.32;3.80;;;30.70;35.10;;;;;;5998583;29;20118;-77
2022/08/06 21:29:39;;;;;;;6.20;3.83;;;30.60;35.70;;;;;;6014552;29;20041;-79
2022/08/06 21:32:39;;;;;;;4.53;3.35;;;30.60;35.30;;;;;;6030863;29;20057;-77
2022/08/06 21:35:41;;;;;;;6.35;3.22;;;30.60;35.50;;;;;;6014579;29;20093;-77
2022/08/06 21:38:42;;;;;;;4.95;3.45;;;30.60;35.60;;;;;;6031277;29;20056;-78
2022/08/06 21:41:43;;;;;;;8.45;3.63;;;30.60;35.80;;;;;;6019423;29;20045;-78
2022/08/06 21:44:44;;;;;;;5.05;3.30;;;30.50;35.80;;;;;;6028531;29;20064;-76
2022/08/06 21:47:45;;;;;;;8.25;3.13;;;30.50;35.90;;;;;;6030109;29;20041;-77
2022/08/06 21:50:46;;;;;;;5.13;3.63;;;30.50;36.10;;;;;;6015451;29;20042;-77
2022/08/06 21:53:49;;;;;;;6.20;4.10;;;30.40;36.20;;;;;;6022138;29;20085;-77
2022/08/06 21:56:50;;;;;;;9.65;4.63;;;30.40;36.30;;;;;;6029917;29;20041;-77
2022/08/06 21:59:51;;;;;;;12.00;4.97;;;30.40;36.50;;;;;;6030564;29;20134;-77
2022/08/06 22:02:52;;;;;;;8.32;5.38;;;30.30;36.60;;;;;;6031681;29;20125;-77
2022/08/06 22:05:53;;;;;;;8.20;3.30;;;30.30;36.80;;;;;;6012802;29;20037;-78
2022/08/06 22:08:55;;;;;;;4.30;2.70;;;30.30;37.10;;;;;;6045560;29;20050;-78
2022/08/06 22:11:56;;;;;;;8.27;2.60;;;30.30;37.20;;;;;;6031159;29;20048;-78
2022/08/06 22:14:57;;;;;;;8.32;2.35;;;30.30;37.40;;;;;;6031378;29;20045;-77
2022/08/06 22:17:58;;;;;;;5.30;2.22;;;30.30;37.50;;;;;;6036118;29;20375;-77
2022/08/06 22:21:00;;;;;;;4.13;2.63;;;30.20;37.50;;;;;;6035633;29;20050;-78
2022/08/06 22:24:00;;;;;;;9.15;2.67;;;30.20;37.70;;;;;;6031395;29;20033;-77
2022/08/06 22:27:02;;;;;;;3.63;1.90;;;30.20;37.90;;;;;;6027568;29;20116;-77
2022/08/06 22:33:24;;;;;;;2.95;2.03;;;30.10;38.20;;;;;;6033639;29;20079;-77
2022/08/06 22:36:26;;;;;;;8.45;2.35;;;30.00;38.40;;;;;;6034725;29;20093;-77
2022/08/06 22:39:27;;;;;;;5.88;2.47;;;29.90;38.60;;;;;;6035666;29;20033;-77
2022/08/06 22:42:28;;;;;;;1.88;1.67;;;29.80;38.70;;;;;;6034345;29;20367;-77
2022/08/06 22:45:29;;;;;;;6.63;2.33;;;29.80;39.00;;;;;;6020833;29;20459;-77
2022/08/06 22:48:30;;;;;;;3.75;2.15;;;29.70;39.10;;;;;;6034894;29;20037;-77
2022/08/06 22:51:31;;;;;;;6.00;2.10;;;29.70;39.30;;;;;;6018870;29;20040;-79
2022/08/06 22:54:32;;;;;;;2.83;1.88;;;29.60;39.50;;;;;;6034568;29;20484;-77
2022/08/06 22:57:33;;;;;;;4.00;2.30;;;29.50;39.60;;;;;;6019531;29;20132;-77
2022/08/06 23:00:36;;;;;;;2.45;1.75;;;29.50;39.80;;;;;;6040243;29;20041;-77
2022/08/06 23:03:37;;;;;;;4.68;2.03;;;29.30;39.90;;;;;;6018449;29;20044;-76
2022/08/06 23:06:37;;;;;;;2.85;2.03;;;29.30;40.00;;;;;;6033909;29;20045;-77
2022/08/06 23:09:38;;;;;;;5.95;2.33;;;29.30;40.20;;;;;;6034550;29;20042;-77
2022/08/06 23:12:40;;;;;;;2.95;1.90;;;29.20;40.40;;;;;;6037207;29;20049;-77
2022/08/06 23:15:40;;;;;;;4.13;2.53;;;29.10;40.50;;;;;;6017601;29;20037;-78
2022/08/06 23:18:41;;;;;;;4.75;2.35;;;29.10;40.60;;;;;;6034352;29;20490;-79
2022/08/06 23:21:42;;;;;;;2.47;2.00;;;29.00;40.50;;;;;;6002233;29;20037;-78
2022/08/06 23:24:43;;;;;;;3.55;2.10;;;29.00;40.70;;;;;;6034296;29;20049;-78
2022/08/06 23:27:44;;;;;;;4.05;1.95;;;29.00;40.80;;;;;;6019714;29;20128;-78
2022/08/06 23:30:46;;;;;;;3.15;2.08;;;28.90;40.90;;;;;;6034861;29;20061;-78
2022/08/06 23:33:47;;;;;;;4.63;1.85;;;28.90;41.00;;;;;;6024492;29;20046;-78
2022/08/06 23:36:48;;;;;;;3.65;2.45;;;28.80;41.10;;;;;;6034319;29;20053;-78
2022/08/06 23:39:49;;;;;;;2.10;1.75;;;28.70;41.20;;;;;;6017562;29;20049;-78
2022/08/06 23:42:50;;;;;;;2.30;1.88;;;28.60;41.30;;;;;;6033551;29;20193;-77
2022/08/06 23:45:51;;;;;;;7.78;2.13;;;28.60;41.50;;;;;;6034000;29;20487;-78
2022/08/06 23:48:52;;;;;;;3.15;1.92;;;28.50;41.60;;;;;;6017873;29;20049;-77
2022/08/06 23:51:55;;;;;;;2.75;2.10;;;28.50;41.70;;;;;;6014069;29;20045;-77
2022/08/06 23:54:56;;;;;;;3.55;1.88;;;28.40;41.90;;;;;;6033649;29;20041;-77
2022/08/06 23:57:56;;;;;;;2.17;1.90;;;28.40;42.10;;;;;;6017520;29;20052;-76
